Aviation Digital Data Service (ADDS)

Output produced by METARs form (1651 UTC 30 September 2016)
found at http://aviationweather.gov/adds/metars/
 
KISP 301527Z 3015/0112 06018G28KT 2SM -SHRA OVC012 
     FM301800 05018G25KT 2SM -SHRA BR OVC010 
     FM010300 04013G19KT 4SM -SHRA BR OVC008